Time;durP1;ratioP1;P1;durP2;ratioP2;P2;SDS_P1;SDS_P2;PMS_P1;PMS_P2;Temp;Humidity;BMP_temperature;BMP_pressure;BME280_temperature;BME280_humidity;BME280_pressure;Samples;Min_cycle;Max_cycle;Signal;HPM_P1;HPM_P2
2022/07/24 00:02:17;;;;;;;22.42;16.23;;;;;;;12.57;100.00;97074.56;10450666;28;20204;-70
2022/07/24 00:07:17;;;;;;;25.02;18.20;;;;;;;12.46;100.00;97079.13;10450992;28;20250;-70
2022/07/24 00:12:17;;;;;;;26.02;18.08;;;;;;;12.44;100.00;97075.84;10450522;28;20192;-70
2022/07/24 00:17:18;;;;;;;22.55;17.65;;;;;;;12.37;100.00;97071.38;10450854;28;20249;-70
2022/07/24 00:22:18;;;;;;;22.58;16.10;;;;;;;12.35;100.00;97071.53;10450426;28;20187;-70
2022/07/24 00:27:19;;;;;;;22.92;16.48;;;;;;;12.18;100.00;97070.66;10450346;28;20211;-70
2022/07/24 00:32:19;;;;;;;25.25;16.23;;;;;;;12.12;100.00;97081.78;10449890;28;20192;-70
2022/07/24 00:37:19;;;;;;;22.10;15.77;;;;;;;12.05;100.00;97083.38;10450180;28;20670;-70
2022/07/24 00:42:20;;;;;;;20.55;16.40;;;;;;;11.96;100.00;97093.03;10448733;28;20575;-70
2022/07/24 00:47:20;;;;;;;23.95;16.08;;;;;;;11.96;100.00;97093.03;10449684;28;20232;-70
2022/07/24 00:52:20;;;;;;;21.93;15.70;;;;;;;11.98;100.00;97088.44;10449418;28;20218;-70
2022/07/24 00:57:21;;;;;;;22.67;15.17;;;;;;;11.88;100.00;97090.31;10448828;28;20202;-70
2022/07/24 01:02:21;;;;;;;21.77;16.20;;;;;;;11.73;100.00;97084.81;10429847;28;20242;-70
2022/07/24 01:07:22;;;;;;;20.03;14.73;;;;;;;11.73;100.00;97093.53;10449039;28;20223;-70
2022/07/24 01:12:23;;;;;;;19.10;14.20;;;;;;;11.68;100.00;97093.13;10449282;28;20845;-70
2022/07/24 01:17:23;;;;;;;15.37;13.27;;;;;;;11.59;100.00;97091.44;10449045;28;20647;-70
2022/07/24 01:22:25;;;;;;;17.07;13.10;;;;;;;11.54;100.00;97094.53;10448521;28;20188;-70
2022/07/24 01:27:25;;;;;;;17.77;13.13;;;;;;;11.52;100.00;97095.69;10448886;28;20298;-70
2022/07/24 01:32:26;;;;;;;14.97;12.10;;;;;;;11.45;100.00;97100.69;10448038;28;20246;-70
2022/07/24 01:37:27;;;;;;;15.93;12.80;;;;;;;11.39;100.00;97099.53;10448718;28;20212;-70
2022/07/24 01:42:27;;;;;;;17.07;12.40;;;;;;;11.32;100.00;97100.28;10448507;28;20289;-69
2022/07/24 01:47:27;;;;;;;17.73;12.43;;;;;;;11.24;100.00;97101.84;10448592;28;20239;-70
2022/07/24 01:52:28;;;;;;;14.97;11.63;;;;;;;11.21;100.00;97103.97;10450517;28;20192;-69
2022/07/24 01:57:28;;;;;;;16.40;11.43;;;;;;;11.12;100.00;97104.84;10455929;28;20220;-70
2022/07/24 02:02:28;;;;;;;14.10;11.43;;;;;;;11.06;100.00;97107.09;10455234;28;20196;-70
2022/07/24 02:07:29;;;;;;;16.53;11.50;;;;;;;11.02;100.00;97105.72;10455495;28;20265;-70
2022/07/24 02:12:29;;;;;;;15.43;11.03;;;;;;;10.94;100.00;97105.66;10455553;28;20188;-70
2022/07/24 02:17:29;;;;;;;12.60;10.63;;;;;;;10.94;100.00;97107.47;10455143;28;20184;-71
2022/07/24 02:22:30;;;;;;;12.77;11.07;;;;;;;10.86;100.00;97105.59;10454739;28;20227;-70
2022/07/24 02:27:30;;;;;;;15.13;10.53;;;;;;;10.83;100.00;97106.72;10455022;28;20265;-70
2022/07/24 02:32:30;;;;;;;12.10;10.33;;;;;;;10.78;100.00;97110.72;10454784;28;20199;-70
2022/07/24 02:37:31;;;;;;;11.37;9.77;;;;;;;10.70;100.00;97120.19;10454137;28;20207;-70
2022/07/24 02:42:31;;;;;;;13.60;10.03;;;;;;;10.73;100.00;97128.72;10454219;28;20194;-70
2022/07/24 02:47:32;;;;;;;11.70;9.43;;;;;;;10.71;100.00;97126.22;10453982;28;20223;-70
2022/07/24 02:52:32;;;;;;;14.40;9.83;;;;;;;10.63;100.00;97121.72;10452886;28;20192;-70
2022/07/24 02:57:32;;;;;;;12.87;9.33;;;;;;;10.61;100.00;97123.69;10452294;28;20200;-70
2022/07/24 03:02:33;;;;;;;9.10;7.93;;;;;;;10.55;100.00;97128.66;10453099;28;20290;-70
2022/07/24 03:07:36;;;;;;;14.03;9.83;;;;;;;10.47;100.00;97118.91;10488384;28;20226;-70
2022/07/24 03:12:36;;;;;;;13.03;10.10;;;;;;;10.43;100.00;97126.25;10485810;28;20202;-70
2022/07/24 03:17:36;;;;;;;11.63;8.37;;;;;;;10.39;100.00;97135.34;10487020;28;20192;-70
2022/07/24 03:22:37;;;;;;;11.83;8.60;;;;;;;10.29;100.00;97130.13;10486295;28;20198;-70
2022/07/24 03:27:37;;;;;;;12.03;8.27;;;;;;;10.34;100.00;97127.13;10486860;28;20238;-70
2022/07/24 03:32:38;;;;;;;14.63;9.57;;;;;;;10.23;100.00;97132.50;10485693;28;20270;-70
2022/07/24 03:37:38;;;;;;;9.83;8.37;;;;;;;10.21;100.00;97137.06;10485707;28;20336;-70
2022/07/24 03:42:39;;;;;;;9.53;7.57;;;;;;;10.24;100.00;97134.97;10485461;28;20554;-70
2022/07/24 03:47:39;;;;;;;11.17;7.87;;;;;;;10.21;100.00;97135.25;10485950;28;20227;-70
2022/07/24 03:52:39;;;;;;;11.87;8.17;;;;;;;10.17;100.00;97126.88;10485025;28;20237;-70
2022/07/24 03:57:40;;;;;;;8.83;7.70;;;;;;;10.21;100.00;97127.41;10485512;28;20341;-70
2022/07/24 04:02:40;;;;;;;9.83;7.87;;;;;;;10.16;100.00;97127.81;10470765;28;20206;-70
2022/07/24 04:07:41;;;;;;;9.33;8.00;;;;;;;10.12;100.00;97120.41;10483381;28;20250;-70
2022/07/24 04:12:41;;;;;;;9.97;8.17;;;;;;;10.14;100.00;97126.34;10451329;28;20196;-70
2022/07/24 04:17:43;;;;;;;10.13;7.67;;;;;;;10.19;100.00;97124.09;10472616;28;20670;-70
2022/07/24 04:22:43;;;;;;;8.70;7.27;;;;;;;10.29;100.00;97135.38;10468609;28;20188;-70
2022/07/24 04:27:44;;;;;;;9.47;8.07;;;;;;;10.39;100.00;97127.50;10468334;28;20211;-70
2022/07/24 04:32:44;;;;;;;8.60;6.97;;;;;;;10.51;100.00;97126.34;10467386;28;20990;-70
2022/07/24 04:37:45;;;;;;;7.13;6.43;;;;;;;10.65;100.00;97125.00;10469865;28;20599;-70
2022/07/24 04:42:46;;;;;;;6.57;5.87;;;;;;;10.99;100.00;97116.50;10463621;28;20548;-70
2022/07/24 04:47:46;;;;;;;7.00;6.30;;;;;;;11.32;100.00;97121.25;10449431;28;20224;-69
2022/07/24 04:52:46;;;;;;;6.63;5.57;;;;;;;11.33;100.00;97105.38;10449608;28;20192;-70
2022/07/24 04:57:47;;;;;;;6.40;4.80;;;;;;;11.52;100.00;97103.53;10449043;28;20552;-70
2022/07/24 05:02:47;;;;;;;5.47;4.97;;;;;;;11.83;100.00;97100.47;10431453;28;20187;-70
2022/07/24 05:07:48;;;;;;;5.30;4.72;;;;;;;12.08;100.00;97106.69;10449462;28;20231;-70
2022/07/24 05:12:48;;;;;;;7.50;4.55;;;;;;;12.23;100.00;97104.31;10448902;28;20206;-70
2022/07/24 05:17:48;;;;;;;6.20;4.82;;;;;;;12.44;100.00;97114.44;10484435;28;20252;-70
2022/07/24 05:22:49;;;;;;;5.10;4.00;;;;;;;12.78;100.00;97103.03;10489851;28;20202;-70
2022/07/24 05:27:49;;;;;;;9.05;4.65;;;;;;;13.10;100.00;97111.97;10493655;28;20219;-70
2022/07/24 05:32:49;;;;;;;5.07;4.57;;;;;;;13.58;100.00;97113.00;10479931;28;20194;-70
2022/07/24 05:37:50;;;;;;;6.25;4.22;;;;;;;13.94;100.00;97103.94;10498296;28;20228;-70
2022/07/24 05:42:50;;;;;;;6.32;3.78;;;;;;;14.24;100.00;97094.44;10493365;28;20788;-70
2022/07/24 05:47:51;;;;;;;8.40;4.05;;;;;;;14.66;100.00;97097.78;10475092;28;20216;-70
2022/07/24 05:52:51;;;;;;;4.47;4.00;;;;;;;14.96;100.00;97099.56;10476488;28;20195;-70
2022/07/24 05:57:51;;;;;;;4.82;3.45;;;;;;;15.29;100.00;97086.13;10474389;28;20191;-70
2022/07/24 06:02:52;;;;;;;3.88;3.47;;;;;;;15.54;100.00;97088.56;10475674;28;20245;-70
2022/07/24 06:07:52;;;;;;;5.20;3.10;;;;;;;15.92;100.00;97091.22;10477811;28;20301;-70
2022/07/24 06:12:53;;;;;;;3.28;2.97;;;;;;;16.41;100.00;97088.00;10478276;28;20248;-70
2022/07/24 06:17:53;;;;;;;3.38;3.08;;;;;;;17.25;94.78;97072.69;10480531;28;20187;-70
2022/07/24 06:22:53;;;;;;;4.55;2.50;;;;;;;17.82;86.16;97039.91;10481643;28;20660;-70
2022/07/24 06:27:54;;;;;;;2.70;1.52;;;;;;;19.27;72.17;96919.47;10473050;28;20211;-70
2022/07/24 06:32:56;;;;;;;3.50;1.40;;;;;;;19.38;72.08;96969.31;10472568;28;20324;-70
2022/07/24 06:37:56;;;;;;;3.90;2.08;;;;;;;19.90;63.58;96851.66;10467012;28;20193;-70
2022/07/24 06:49:19;;;;;;;5.03;1.00;;;;;;;23.61;54.33;96798.59;10454325;28;20699;-71
2022/07/24 06:54:19;;;;;;;2.92;1.50;;;;;;;21.97;56.48;96828.47;10453869;28;20188;-71
2022/07/24 06:59:19;;;;;;;2.47;1.30;;;;;;;23.53;52.97;96799.00;10452819;28;20200;-71
2022/07/24 07:04:20;;;;;;;2.30;1.10;;;;;;;25.36;48.61;96759.38;10453866;28;20231;-71
2022/07/24 07:09:20;;;;;;;4.80;1.50;;;;;;;25.01;48.50;96759.69;10452985;28;20670;-71
2022/07/24 07:14:21;;;;;;;2.75;1.40;;;;;;;23.07;52.17;96812.97;10453156;28;20534;-70
2022/07/24 07:19:21;;;;;;;2.88;1.33;;;;;;;25.06;48.79;96797.31;10453174;28;20692;-71
2022/07/24 07:24:21;;;;;;;6.07;1.45;;;;;;;26.52;46.43;96772.59;10452107;28;20223;-71
2022/07/24 07:29:22;;;;;;;3.57;1.30;;;;;;;25.00;48.00;96779.53;10481868;28;20744;-71
2022/07/24 07:34:22;;;;;;;4.38;1.70;;;;;;;22.76;52.20;96820.31;10493394;28;20960;-70
2022/07/24 07:39:22;;;;;;;2.75;1.40;;;;;;;25.04;48.49;96810.16;10493583;28;20553;-71
2022/07/24 07:44:23;;;;;;;3.63;1.45;;;;;;;25.49;48.25;96816.41;10493064;28;20396;-71
2022/07/24 07:49:23;;;;;;;2.97;1.70;;;;;;;25.37;46.53;96765.56;10492618;28;20199;-71
2022/07/24 07:54:23;;;;;;;4.23;1.67;;;;;;;24.16;50.50;96840.88;10480817;28;20184;-71
2022/07/24 07:59:24;;;;;;;3.60;1.77;;;;;;;24.79;47.79;96787.28;10475331;28;20528;-71
2022/07/24 08:04:25;;;;;;;2.35;1.70;;;;;;;26.58;45.17;96786.88;10475042;28;20476;-71
2022/07/24 08:09:25;;;;;;;1.98;1.85;;;;;;;23.92;52.08;96874.13;10492059;28;20274;-71
2022/07/24 08:20:15;;;;;;;2.72;1.60;;;;;;;23.62;52.10;96873.25;10472864;28;20203;-71
2022/07/24 08:25:19;;;;;;;6.63;2.10;;;;;;;21.30;56.07;96884.41;10482363;28;20227;-71
2022/07/24 08:30:39;;;;;;;5.00;2.28;;;;;;;22.93;52.87;96865.84;10490721;28;20195;-71
2022/07/24 08:35:39;;;;;;;3.03;1.90;;;;;;;25.09;50.22;96871.88;10491242;28;20262;-71
2022/07/24 08:40:40;;;;;;;7.80;3.20;;;;;;;26.21;46.38;96807.25;10491072;28;20274;-71
2022/07/24 08:45:42;;;;;;;2.72;1.98;;;;;;;26.11;45.73;96786.50;10491111;28;20227;-71
2022/07/24 08:50:42;;;;;;;3.78;2.25;;;;;;;26.37;45.90;96786.75;10491237;28;20650;-71
2022/07/24 08:55:42;;;;;;;6.25;2.15;;;;;;;27.73;43.50;96778.13;10502396;28;20191;-71
2022/07/24 09:00:45;;;;;;;2.10;1.90;;;;;;;28.25;42.25;96753.97;10476726;28;20287;-72
2022/07/24 09:05:58;;;;;;;3.75;1.88;;;;;;;27.99;42.57;96753.94;10504911;28;20310;-72
2022/07/24 09:11:03;;;;;;;2.85;1.95;;;;;;;27.74;45.12;96797.75;10486726;28;20547;-70
2022/07/24 09:16:04;;;;;;;4.55;1.77;;;;;;;29.19;39.22;96683.41;10474610;28;20187;-71
2022/07/24 09:21:15;;;;;;;2.97;2.17;;;;;;;29.88;39.73;96738.41;10477962;28;20194;-71
2022/07/24 09:26:15;;;;;;;5.93;2.20;;;;;;;29.99;39.18;96722.16;10479918;28;20302;-71
2022/07/24 09:31:16;;;;;;;5.90;2.05;;;;;;;29.42;41.02;96751.31;10461178;28;20659;-72
2022/07/24 09:36:18;;;;;;;2.75;2.22;;;;;;;30.66;37.00;96675.59;10461764;28;20269;-71
2022/07/24 09:41:21;;;;;;;2.78;2.08;;;;;;;30.36;35.56;96608.03;10503528;28;20187;-72
2022/07/24 09:46:22;;;;;;;2.88;2.40;;;;;;;30.93;35.46;96643.34;10503865;28;20280;-71
2022/07/24 09:51:24;;;;;;;3.95;2.15;;;;;;;29.39;38.71;96697.91;10485866;28;20214;-71
2022/07/24 09:56:25;;;;;;;5.90;2.30;;;;;;;28.59;40.85;96721.91;10503102;28;20195;-71
2022/07/24 10:01:26;;;;;;;4.22;1.83;;;;;;;29.19;38.64;96694.22;10469017;28;20190;-72
2022/07/24 10:06:27;;;;;;;2.83;2.15;;;;;;;26.26;40.95;96629.25;10499664;28;20231;-72
2022/07/24 10:11:28;;;;;;;5.10;2.28;;;;;;;25.15;45.62;96731.47;10503377;28;20654;-72
2022/07/24 10:16:30;;;;;;;3.55;2.20;;;;;;;27.94;39.73;96683.91;10479714;28;20186;-71
2022/07/24 10:21:36;;;;;;;4.85;2.47;;;;;;;28.72;38.09;96672.00;10496501;28;20202;-72
2022/07/24 10:26:42;;;;;;;4.60;2.50;;;;;;;28.25;39.45;96682.03;10478698;28;20215;-72
2022/07/24 10:37:41;;;;;;;5.32;2.20;;;;;;;30.61;35.72;96673.75;10460496;28;20293;-72
2022/07/24 10:43:09;;;;;;;4.10;2.20;;;;;;;29.86;36.09;96632.56;10472606;28;20198;-72
2022/07/24 10:48:28;;;;;;;2.13;1.90;;;;;;;29.27;37.28;96658.56;10496882;28;20214;-71
2022/07/24 10:53:29;;;;;;;2.95;2.35;;;;;;;29.33;36.66;96621.59;10496736;28;20199;-71
2022/07/24 10:58:30;;;;;;;4.53;2.38;;;;;;;31.06;35.01;96662.75;10495794;28;20187;-71
2022/07/24 11:03:30;;;;;;;4.13;2.50;;;;;;;29.07;38.08;96635.19;10478130;28;20756;-72
2022/07/24 11:08:33;;;;;;;3.70;2.50;;;;;;;29.70;36.59;96634.53;10477240;28;20222;-71
2022/07/24 11:13:33;;;;;;;5.15;2.75;;;;;;;30.77;34.52;96614.91;10495724;28;20590;-71
2022/07/24 11:18:33;;;;;;;3.90;2.10;;;;;;;30.86;36.55;96694.31;10469611;28;20253;-71
2022/07/24 11:23:34;;;;;;;3.03;2.13;;;;;;;30.97;34.47;96619.25;10453868;28;20199;-71
2022/07/24 11:28:34;;;;;;;4.85;2.55;;;;;;;29.46;35.66;96577.75;10447352;28;20876;-71
2022/07/24 11:33:36;;;;;;;3.70;2.03;;;;;;;31.83;34.83;96646.19;10470670;28;20215;-71
2022/07/24 11:38:37;;;;;;;2.17;1.85;;;;;;;32.56;33.15;96615.97;10473947;28;20458;-71
2022/07/24 11:43:52;;;;;;;3.10;2.10;;;;;;;32.75;32.53;96601.50;10491543;28;20235;-71
2022/07/24 11:49:06;;;;;;;5.55;2.38;;;;;;;29.74;34.35;96526.78;10494739;28;20225;-71
2022/07/24 11:54:07;;;;;;;4.88;2.72;;;;;;;28.90;36.13;96557.34;10494381;28;20219;-70
2022/07/24 11:59:30;;;;;;;7.65;2.40;;;;;;;27.87;37.56;96564.88;10493165;28;20589;-71
2022/07/24 12:04:30;;;;;;;3.58;2.10;;;;;;;30.21;34.34;96560.34;10481449;28;20229;-70
2022/07/24 12:09:31;;;;;;;2.83;2.35;;;;;;;31.16;33.08;96558.94;10488160;28;20306;-71
2022/07/24 12:14:31;;;;;;;2.63;2.10;;;;;;;31.46;33.34;96568.50;10484847;28;20203;-71
2022/07/24 12:19:32;;;;;;;4.65;2.20;;;;;;;32.78;29.86;96511.38;10487201;28;20244;-71
2022/07/24 12:24:33;;;;;;;3.33;2.45;;;;;;;33.80;28.49;96496.47;10478901;28;20184;-71
2022/07/24 12:29:41;;;;;;;3.05;2.35;;;;;;;32.83;30.10;96484.13;10487697;28;20719;-71
2022/07/24 12:34:51;;;;;;;3.40;1.85;;;;;;;33.14;29.45;96478.78;10475911;28;20258;-71
2022/07/24 12:39:53;;;;;;;2.97;2.05;;;;;;;31.90;30.39;96455.34;10465060;28;20195;-71
2022/07/24 12:44:53;;;;;;;3.25;2.20;;;;;;;35.18;27.26;96497.13;10446010;28;20235;-72
2022/07/24 12:49:53;;;;;;;2.30;2.10;;;;;;;34.24;29.00;96503.72;10446753;28;20192;-71
2022/07/24 12:54:54;;;;;;;2.33;2.00;;;;;;;32.41;30.72;96467.13;10459762;28;20754;-71
2022/07/24 13:00:00;;;;;;;2.23;2.00;;;;;;;35.64;27.40;96514.72;10466114;28;20442;-71
2022/07/24 13:05:00;;;;;;;2.17;1.98;;;;;;;30.89;30.45;96346.66;10465621;28;20433;-71
2022/07/24 13:10:00;;;;;;;2.43;2.07;;;;;;;34.15;29.22;96483.03;10467470;28;20184;-71
2022/07/24 13:15:01;;;;;;;5.17;2.10;;;;;;;34.72;27.93;96476.75;10470733;28;20802;-71
2022/07/24 13:20:02;;;;;;;2.77;1.80;;;;;;;35.53;27.84;96497.09;10475383;28;20472;-71
2022/07/24 13:25:02;;;;;;;3.17;2.20;;;;;;;34.74;26.95;96423.63;10480499;28;20456;-72
2022/07/24 13:30:04;;;;;;;2.80;2.00;;;;;;;35.53;26.46;96432.50;10486006;28;20194;-71
2022/07/24 13:35:04;;;;;;;4.93;1.95;;;;;;;33.19;28.77;96375.53;10462710;28;20211;-71
2022/07/24 13:40:06;;;;;;;2.72;2.00;;;;;;;31.51;29.99;96342.88;10484890;28;20222;-71
2022/07/24 13:45:07;;;;;;;2.33;1.90;;;;;;;29.76;33.07;96394.97;10486214;28;20306;-71
2022/07/24 13:50:08;;;;;;;5.95;2.22;;;;;;;32.60;30.19;96431.72;10486701;28;20209;-71
2022/07/24 13:55:08;;;;;;;4.28;2.38;;;;;;;32.72;28.73;96354.13;10493686;28;20238;-71
2022/07/24 14:00:09;;;;;;;2.97;2.03;;;;;;;33.97;27.42;96390.56;10491863;28;20195;-71
2022/07/24 14:05:10;;;;;;;4.38;2.30;;;;;;;35.72;26.01;96396.69;10489505;28;20721;-71
2022/07/24 14:10:10;;;;;;;1.93;1.70;;;;;;;38.09;24.23;96443.84;10489772;28;20729;-71
2022/07/24 14:15:12;;;;;;;6.60;1.92;;;;;;;36.24;25.77;96401.06;10489324;28;20951;-71
2022/07/24 14:20:12;;;;;;;2.08;1.80;;;;;;;37.37;24.84;96414.94;10491642;28;20198;-71
2022/07/24 14:25:14;;;;;;;2.35;1.75;;;;;;;37.74;24.26;96381.41;10489542;28;20197;-71
2022/07/24 14:30:14;;;;;;;3.33;1.77;;;;;;;39.45;22.81;96397.69;10473264;28;20206;-71
2022/07/24 14:35:15;;;;;;;1.70;1.60;;;;;;;39.01;23.20;96386.75;10491785;28;20214;-71
2022/07/24 14:40:15;;;;;;;3.55;1.60;;;;;;;41.46;20.87;96401.28;10481255;28;20202;-71
2022/07/24 14:45:15;;;;;;;2.60;1.67;;;;;;;39.86;21.66;96337.97;10486654;28;20237;-71
2022/07/24 14:50:16;;;;;;;1.70;1.60;;;;;;;41.83;20.57;96392.47;10489205;28;20291;-71
2022/07/24 14:55:16;;;;;;;2.65;1.85;;;;;;;41.21;21.33;96380.75;10471298;28;20693;-71
2022/07/24 15:00:17;;;;;;;2.17;1.80;;;;;;;39.38;23.06;96335.25;10483581;28;20202;-71
2022/07/24 15:05:17;;;;;;;2.47;1.83;;;;;;;39.16;21.91;96305.72;10476065;28;20654;-71
2022/07/24 15:10:17;;;;;;;1.60;1.50;;;;;;;37.29;24.41;96312.81;10463675;28;20663;-71
2022/07/24 15:15:18;;;;;;;2.50;1.70;;;;;;;37.96;23.46;96322.72;10468014;28;20473;-71
2022/07/24 15:20:18;;;;;;;2.15;1.80;;;;;;;37.56;23.91;96332.41;10467941;28;20276;-71
2022/07/24 15:25:19;;;;;;;4.60;1.93;;;;;;;35.68;25.54;96302.28;10474469;28;20178;-70
2022/07/24 15:30:19;;;;;;;2.13;1.92;;;;;;;37.79;24.09;96364.78;10490182;28;20448;-71
2022/07/24 15:35:20;;;;;;;2.85;1.88;;;;;;;37.89;23.67;96323.31;10489735;28;20218;-71
2022/07/24 15:40:20;;;;;;;5.00;2.03;;;;;;;39.55;22.29;96349.78;10488934;28;20190;-71
2022/07/24 15:45:21;;;;;;;1.97;1.70;;;;;;;39.64;21.89;96333.94;10488489;28;20230;-71
2022/07/24 15:50:21;;;;;;;2.20;1.98;;;;;;;37.13;24.43;96292.72;10495147;28;20441;-71
2022/07/24 15:55:22;;;;;;;3.40;1.70;;;;;;;38.87;23.21;96348.81;10487421;28;20210;-72
2022/07/24 16:00:22;;;;;;;4.93;1.90;;;;;;;39.66;21.98;96311.66;10494581;28;20198;-71
2022/07/24 16:05:23;;;;;;;3.80;1.57;;;;;;;37.81;22.97;96258.59;10492345;28;20842;-71
2022/07/24 16:10:24;;;;;;;2.28;1.63;;;;;;;36.90;23.42;96227.63;10492367;28;20437;-71
2022/07/24 16:15:24;;;;;;;1.60;1.50;;;;;;;35.86;24.50;96194.75;10475528;28;20238;-71
2022/07/24 16:20:25;;;;;;;4.03;1.90;;;;;;;33.80;26.84;96246.47;10492960;28;20226;-71
2022/07/24 16:25:26;;;;;;;3.13;2.10;;;;;;;33.30;26.00;96175.13;10493552;28;20183;-71
2022/07/24 16:30:26;;;;;;;2.63;1.85;;;;;;;32.25;27.17;96169.22;10492948;28;20213;-71
2022/07/24 16:35:27;;;;;;;3.13;2.33;;;;;;;31.36;30.54;96260.84;10493182;28;20219;-71
2022/07/24 16:40:28;;;;;;;2.10;1.80;;;;;;;31.75;29.19;96245.22;10492135;28;20336;-71
2022/07/24 16:45:28;;;;;;;2.30;1.88;;;;;;;32.40;28.80;96264.88;10492092;28;20235;-71
2022/07/24 16:50:28;;;;;;;2.17;1.97;;;;;;;31.81;28.81;96247.50;10492262;28;20576;-71
2022/07/24 16:55:29;;;;;;;5.30;1.70;;;;;;;30.92;30.38;96259.50;10492525;28;20921;-70
2022/07/24 17:00:29;;;;;;;5.57;2.10;;;;;;;30.70;29.91;96246.66;10492446;28;20812;-70
2022/07/24 17:05:29;;;;;;;4.00;2.17;;;;;;;30.15;32.31;96295.91;10492315;28;20799;-71
2022/07/24 17:10:30;;;;;;;5.67;1.87;;;;;;;29.50;31.03;96235.22;10492060;28;20856;-71
2022/07/24 17:15:30;;;;;;;2.60;1.60;;;;;;;29.40;32.40;96284.72;10491931;28;20491;-70
2022/07/24 17:20:34;;;;;;;2.50;1.70;;;;;;;29.21;33.39;96318.94;10491919;28;20670;-70
2022/07/24 17:25:36;;;;;;;1.88;1.60;;;;;;;29.08;33.84;96340.09;10480080;28;20673;-71
2022/07/24 17:30:38;;;;;;;3.50;2.15;;;;;;;28.97;33.01;96314.28;10500272;28;20194;-70
2022/07/24 17:35:39;;;;;;;2.25;2.05;;;;;;;28.42;34.86;96342.22;10499865;28;20226;-71
2022/07/24 17:40:39;;;;;;;4.25;1.90;;;;;;;28.43;35.88;96376.16;10481993;28;20202;-70
2022/07/24 17:45:39;;;;;;;2.40;1.80;;;;;;;28.05;35.96;96372.34;10499160;28;20223;-71
2022/07/24 17:50:40;;;;;;;2.00;1.80;;;;;;;27.53;36.95;96387.84;10499032;28;20203;-71
2022/07/24 17:55:40;;;;;;;2.22;1.95;;;;;;;27.27;37.93;96414.78;10499412;28;20219;-70
2022/07/24 18:00:41;;;;;;;2.47;1.70;;;;;;;26.83;38.56;96410.78;10498573;28;20726;-70
2022/07/24 18:05:41;;;;;;;2.92;2.00;;;;;;;26.25;39.07;96416.28;10498375;28;20819;-70
2022/07/24 18:10:42;;;;;;;3.80;1.60;;;;;;;26.13;38.80;96403.09;10498481;28;20288;-70
2022/07/24 18:15:42;;;;;;;4.77;2.00;;;;;;;25.92;39.55;96426.34;10497980;28;20219;-70
2022/07/24 18:20:42;;;;;;;4.95;2.00;;;;;;;25.93;38.96;96411.84;10498106;28;20528;-70
2022/07/24 18:25:43;;;;;;;1.90;1.80;;;;;;;25.41;39.55;96418.81;10497428;28;20201;-70
2022/07/24 18:30:43;;;;;;;2.10;1.65;;;;;;;25.16;40.54;96450.78;10497636;28;20230;-71
2022/07/24 18:35:43;;;;;;;3.97;1.88;;;;;;;24.91;42.65;96509.28;10495924;28;20226;-72
2022/07/24 18:40:44;;;;;;;2.63;1.85;;;;;;;24.14;45.77;96566.47;10497212;28;20209;-71
2022/07/24 18:45:44;;;;;;;8.13;2.10;;;;;;;23.22;48.06;96598.72;10497812;28;20223;-71
2022/07/24 18:50:45;;;;;;;5.97;2.00;;;;;;;22.17;51.48;96646.72;10496535;28;20249;-71
2022/07/24 18:55:45;;;;;;;5.63;2.75;;;;;;;21.21;53.91;96684.06;10479420;28;20222;-71
2022/07/24 19:00:45;;;;;;;3.00;2.25;;;;;;;21.25;54.09;96687.09;10496356;28;20199;-71
2022/07/24 19:12:02;;;;;;;11.15;2.33;;;;;;;20.35;56.75;96701.75;10445435;28;20204;-70
2022/07/24 19:17:02;;;;;;;3.47;2.78;;;;;;;20.30;57.00;96692.59;10470290;28;20219;-70
2022/07/24 19:22:03;;;;;;;3.88;2.40;;;;;;;20.30;56.84;96694.44;10469189;28;20648;-71
2022/07/24 19:27:03;;;;;;;2.85;2.60;;;;;;;20.19;57.42;96711.13;10470610;28;20201;-71
2022/07/24 19:32:03;;;;;;;4.72;3.83;;;;;;;19.96;58.08;96707.22;10472814;28;20179;-71
2022/07/24 19:37:04;;;;;;;4.47;2.65;;;;;;;19.82;58.52;96717.13;10470640;28;20713;-71
2022/07/24 19:42:05;;;;;;;3.58;3.28;;;;;;;19.75;58.85;96716.31;10473646;28;20241;-70
2022/07/24 19:47:06;;;;;;;3.10;2.40;;;;;;;19.64;58.95;96707.19;10453947;28;20228;-71
2022/07/24 19:52:06;;;;;;;3.92;2.47;;;;;;;19.55;59.37;96722.56;10452233;28;20184;-70
2022/07/24 19:57:06;;;;;;;4.53;2.60;;;;;;;19.31;60.31;96728.63;10452218;28;20220;-71
2022/07/24 20:02:07;;;;;;;4.53;2.58;;;;;;;19.08;60.89;96727.28;10451346;28;20295;-71
2022/07/24 20:07:08;;;;;;;4.20;2.92;;;;;;;18.94;61.56;96725.69;10451610;28;20191;-71
2022/07/24 20:12:08;;;;;;;3.30;2.60;;;;;;;18.68;62.54;96732.69;10451527;28;20637;-70
2022/07/24 20:17:08;;;;;;;4.93;2.80;;;;;;;18.68;62.36;96735.34;10451784;28;20219;-71
2022/07/24 20:22:10;;;;;;;4.45;2.65;;;;;;;18.41;63.42;96731.91;10451322;28;20283;-71
2022/07/24 20:27:10;;;;;;;3.10;2.80;;;;;;;18.31;64.06;96737.63;10451650;28;20617;-71
2022/07/24 20:32:10;;;;;;;4.03;2.63;;;;;;;18.16;64.62;96743.13;10451294;28;20202;-71
2022/07/24 20:37:11;;;;;;;4.45;2.72;;;;;;;17.97;65.23;96742.13;10451393;28;20236;-71
2022/07/24 20:42:11;;;;;;;5.95;2.85;;;;;;;17.92;65.80;96744.56;10451236;28;20200;-70
2022/07/24 20:47:11;;;;;;;3.47;2.80;;;;;;;17.78;66.47;96736.56;10451006;28;20228;-71
2022/07/24 20:52:12;;;;;;;7.95;2.75;;;;;;;17.68;66.90;96746.72;10450975;28;20625;-71
2022/07/24 20:57:12;;;;;;;3.13;2.83;;;;;;;17.56;67.63;96754.44;10450094;28;20231;-70
2022/07/24 21:02:12;;;;;;;4.75;3.05;;;;;;;17.46;68.19;96744.22;10450792;28;20249;-70
2022/07/24 21:21:19;;;;;;;3.80;3.30;;;;;;;17.32;68.88;96725.84;10410611;28;20552;-71
2022/07/24 21:33:05;;;;;;;5.97;3.30;;;;;;;17.10;70.39;96733.91;10147496;29;20216;-70
2022/07/24 21:38:05;;;;;;;4.55;3.22;;;;;;;16.99;71.16;96734.47;10361609;28;20267;-70
2022/07/24 21:43:05;;;;;;;5.88;3.35;;;;;;;17.02;70.69;96723.50;10407221;28;20323;-70
2022/07/24 21:48:06;;;;;;;4.57;3.83;;;;;;;17.01;71.54;96727.94;10407432;28;20296;-70
2022/07/24 21:53:06;;;;;;;5.78;4.22;;;;;;;17.07;71.26;96716.56;10407584;28;20192;-70
2022/07/24 21:58:07;;;;;;;5.55;3.80;;;;;;;17.15;71.30;96723.56;10406713;28;20223;-70
2022/07/24 22:03:08;;;;;;;14.93;3.58;;;;;;;17.09;71.60;96717.22;10406948;28;20196;-70
2022/07/24 22:08:09;;;;;;;5.97;3.85;;;;;;;17.08;72.16;96720.06;10405424;28;20224;-70
2022/07/24 22:13:09;;;;;;;6.30;4.07;;;;;;;17.12;71.99;96716.00;10413670;28;20622;-70
2022/07/24 22:18:09;;;;;;;4.47;3.78;;;;;;;17.10;72.60;96718.03;10413571;28;20684;-71
2022/07/24 22:23:10;;;;;;;4.93;4.05;;;;;;;17.19;72.42;96706.25;10413446;28;20723;-70
2022/07/24 22:28:10;;;;;;;8.85;4.18;;;;;;;17.28;72.17;96701.59;10413323;28;20580;-70
2022/07/24 22:33:11;;;;;;;7.90;4.53;;;;;;;17.33;72.21;96693.84;10413286;28;20569;-71
2022/07/24 22:38:11;;;;;;;5.70;4.00;;;;;;;17.41;72.23;96688.41;10411850;28;20700;-70
2022/07/24 22:43:11;;;;;;;8.55;3.63;;;;;;;17.36;72.66;96685.50;10412685;28;20232;-70
2022/07/24 22:48:13;;;;;;;8.15;4.15;;;;;;;17.35;73.01;96689.19;10412336;28;20195;-70
2022/07/24 22:53:14;;;;;;;8.05;3.83;;;;;;;17.44;72.79;96695.94;10412238;28;20197;-70
2022/07/24 22:58:16;;;;;;;4.75;4.07;;;;;;;17.67;72.34;96678.84;10411873;28;20228;-70
2022/07/24 23:03:17;;;;;;;7.13;4.13;;;;;;;17.76;72.28;96674.97;10412340;28;20185;-70
2022/07/24 23:08:17;;;;;;;6.63;4.30;;;;;;;17.90;71.84;96662.59;10393657;28;20196;-70
2022/07/24 23:13:17;;;;;;;7.90;4.28;;;;;;;18.02;71.47;96657.47;10411692;28;20200;-70
2022/07/24 23:18:18;;;;;;;8.55;4.90;;;;;;;18.02;71.91;96652.19;10411234;28;20347;-70
2022/07/24 23:23:18;;;;;;;4.70;4.18;;;;;;;18.24;71.41;96652.78;10409868;28;20196;-70
2022/07/24 23:28:18;;;;;;;6.90;4.55;;;;;;;18.21;71.55;96649.72;10411177;28;20227;-70
2022/07/24 23:33:19;;;;;;;5.60;4.43;;;;;;;18.11;72.09;96650.13;10410923;28;20307;-71
2022/07/24 23:38:19;;;;;;;5.82;4.60;;;;;;;18.40;71.30;96640.91;10410027;28;20216;-71
2022/07/24 23:43:19;;;;;;;9.57;4.60;;;;;;;18.31;71.81;96644.81;10410627;28;20244;-70
2022/07/24 23:48:20;;;;;;;6.15;4.35;;;;;;;18.48;71.64;96630.09;10409785;28;20188;-71
2022/07/24 23:53:20;;;;;;;6.90;4.88;;;;;;;18.57;71.09;96627.19;10410065;28;20258;-70
2022/07/24 23:58:21;;;;;;;5.90;4.78;;;;;;;18.77;70.87;96613.84;10409796;28;20227;-71
